Time;durP1;ratioP1;P1;durP2;ratioP2;P2;SDS_P1;SDS_P2;PMS_P1;PMS_P2;Temp;Humidity;BMP_temperature;BMP_pressure;BME280_temperature;BME280_humidity;BME280_pressure;Samples;Min_cycle;Max_cycle;Signal;HPM_P1;HPM_P2
2022/01/19 00:01:54;;;;;;;28.07;12.87;;;3.30;1.00;;;;;;4986354;28;20215;-56
2022/01/19 00:04:21;;;;;;;24.03;13.63;;;3.20;1.00;;;;;;4984230;28;20196;-57
2022/01/19 00:06:49;;;;;;;26.13;12.60;;;3.20;1.00;;;;;;5000489;28;20196;-56
2022/01/19 00:09:18;;;;;;;25.97;11.77;;;3.10;1.00;;;;;;5003148;28;20255;-57
2022/01/19 00:11:45;;;;;;;23.73;11.57;;;2.90;1.00;;;;;;4984095;28;20668;-56
2022/01/19 00:14:12;;;;;;;22.97;10.43;;;2.90;1.00;;;;;;4981727;28;20271;-57
2022/01/19 00:16:39;;;;;;;19.17;10.17;;;2.70;1.00;;;;;;5002849;28;20247;-56
2022/01/19 00:19:06;;;;;;;21.60;11.57;;;2.70;1.00;;;;;;4984010;28;20220;-57
2022/01/19 00:21:33;;;;;;;21.50;10.47;;;2.70;1.00;;;;;;4985325;28;20602;-56
2022/01/19 00:24:00;;;;;;;24.47;10.50;;;2.70;1.00;;;;;;4967897;28;20231;-57
2022/01/19 00:26:31;;;;;;;19.87;10.30;;;2.60;1.00;;;;;;4982706;28;20882;-56
2022/01/19 00:29:00;;;;;;;21.30;10.37;;;2.60;1.00;;;;;;4999463;28;20240;-58
2022/01/19 00:31:31;;;;;;;18.57;10.73;;;2.60;29.10;;;;;;4983690;28;20229;-57
2022/01/19 00:33:58;;;;;;;23.30;10.43;;;2.50;77.80;;;;;;4999971;28;20251;-56
2022/01/19 00:36:30;;;;;;;20.50;9.97;;;2.50;80.60;;;;;;4969110;28;20304;-59
2022/01/19 00:38:57;;;;;;;30.93;11.27;;;2.40;99.90;;;;;;5001048;28;20263;-59
2022/01/19 00:41:24;;;;;;;21.13;9.53;;;2.30;99.90;;;;;;4984438;28;20295;-57
2022/01/19 00:43:51;;;;;;;22.57;10.90;;;2.30;92.70;;;;;;4982705;28;20224;-58
2022/01/19 00:46:18;;;;;;;20.83;10.57;;;2.20;99.90;;;;;;4967200;28;20205;-59
2022/01/19 00:48:45;;;;;;;29.17;11.10;;;2.20;99.90;;;;;;4984715;28;20201;-58
2022/01/19 00:51:12;;;;;;;25.70;10.53;;;2.20;99.90;;;;;;4983898;28;20228;-59
2022/01/19 00:53:38;;;;;;;29.90;9.93;;;2.20;99.90;;;;;;4983684;28;20614;-58
2022/01/19 00:56:06;;;;;;;20.77;9.77;;;2.10;99.90;;;;;;4967635;28;20215;-58
2022/01/19 00:58:33;;;;;;;20.07;10.60;;;2.10;99.90;;;;;;4967627;28;20286;-59
2022/01/19 01:01:00;;;;;;;18.60;9.80;;;2.00;99.90;;;;;;4982300;28;20245;-58
2022/01/19 01:03:27;;;;;;;21.57;9.70;;;1.90;99.90;;;;;;4967200;28;20614;-58
2022/01/19 01:05:54;;;;;;;19.50;9.87;;;1.90;99.90;;;;;;4983247;28;20343;-59
2022/01/19 01:08:21;;;;;;;21.37;9.93;;;1.90;99.90;;;;;;4985189;28;20296;-59
2022/01/19 01:10:49;;;;;;;21.77;10.43;;;1.80;99.90;;;;;;5000419;28;20275;-59
2022/01/19 01:16:02;;;;;;;16.30;9.00;;;1.80;99.90;;;;;;4980691;28;20229;-59
2022/01/19 01:18:31;;;;;;;17.80;9.63;;;1.80;99.90;;;;;;4993126;28;20274;-58
2022/01/19 01:21:00;;;;;;;19.20;10.40;;;1.80;99.90;;;;;;4985046;28;20213;-60
2022/01/19 01:23:31;;;;;;;25.20;11.50;;;1.70;99.90;;;;;;4969215;28;20754;-59
2022/01/19 01:25:59;;;;;;;18.27;10.40;;;1.60;99.90;;;;;;4966957;28;20233;-59
2022/01/19 01:28:28;;;;;;;18.27;10.50;;;1.60;99.90;;;;;;4982605;28;20215;-59
2022/01/19 01:30:55;;;;;;;17.73;10.17;;;1.60;99.90;;;;;;4983825;28;20200;-59
2022/01/19 01:33:23;;;;;;;23.53;10.07;;;1.50;99.90;;;;;;4969324;28;20428;-59
2022/01/19 01:35:50;;;;;;;24.30;11.70;;;1.60;99.90;;;;;;4967407;28;20209;-58
2022/01/19 01:38:20;;;;;;;19.67;9.77;;;1.50;99.90;;;;;;4984641;28;20201;-59
2022/01/19 01:41:12;;;;;;;21.90;11.27;;;1.60;99.90;;;;;;4969422;28;20220;-58
2022/01/19 01:43:41;;;;;;;22.07;11.07;;;1.50;99.90;;;;;;4983940;28;20283;-59
2022/01/19 01:46:21;;;;;;;23.93;11.60;;;1.50;99.90;;;;;;4982391;28;20632;-58
2022/01/19 01:48:48;;;;;;;24.97;11.93;;;1.50;99.90;;;;;;5001465;28;20203;-59
2022/01/19 01:54:06;;;;;;;22.10;11.73;;;1.50;1.00;;;;;;4983239;28;20212;-59
2022/01/19 01:56:33;;;;;;;26.30;12.73;;;1.40;1.00;;;;;;4982499;28;20304;-58
2022/01/19 01:59:03;;;;;;;23.27;11.27;;;1.40;1.00;;;;;;4985614;28;20301;-57
2022/01/19 02:01:31;;;;;;;25.50;13.00;;;1.40;1.00;;;;;;5005579;28;20303;-58
2022/01/19 02:04:04;;;;;;;25.63;12.77;;;1.30;1.00;;;;;;4987441;28;20209;-58
2022/01/19 02:06:50;;;;;;;28.20;12.77;;;1.20;1.00;;;;;;4971989;28;20205;-58
2022/01/19 02:09:25;;;;;;;25.77;12.13;;;1.20;1.00;;;;;;4987467;28;20915;-59
2022/01/19 02:23:08;;;;;;;23.77;12.30;;;1.20;96.30;;;;;;4989315;28;20252;-58
2022/01/19 02:25:40;;;;;;;26.33;12.60;;;1.10;99.90;;;;;;4988328;28;20212;-58
2022/01/19 02:41:46;;;;;;;26.00;11.73;;;0.90;99.90;;;;;;5003482;28;20283;-59
2022/01/19 02:44:27;;;;;;;28.70;12.83;;;1.00;1.00;;;;;;5004342;28;20216;-58
2022/01/19 02:49:21;;;;;;;29.07;12.97;;;0.90;1.00;;;;;;4986605;28;20284;-58
2022/01/19 02:51:51;;;;;;;24.13;13.07;;;0.80;1.00;;;;;;4985930;28;20901;-58
2022/01/19 02:54:21;;;;;;;27.30;13.13;;;0.80;99.90;;;;;;4967522;28;20228;-58
2022/01/19 02:56:54;;;;;;;23.27;12.07;;;0.70;99.90;;;;;;4965614;28;20200;-58
2022/01/19 02:59:29;;;;;;;25.13;13.97;;;0.70;99.90;;;;;;4982209;28;20289;-59
2022/01/19 03:10:14;;;;;;;21.87;11.63;;;0.70;1.00;;;;;;4983987;28;20288;-58
2022/01/19 03:12:41;;;;;;;25.80;12.53;;;0.60;1.00;;;;;;4977661;28;20276;-58
2022/01/19 03:15:10;;;;;;;21.07;11.93;;;0.60;1.00;;;;;;4968706;28;20234;-58
2022/01/19 03:17:37;;;;;;;22.20;11.70;;;0.60;1.00;;;;;;4968520;28;20293;-59
2022/01/19 03:20:06;;;;;;;20.93;10.97;;;0.50;99.90;;;;;;4986983;28;20198;-59
2022/01/19 03:22:40;;;;;;;22.03;10.40;;;0.50;99.90;;;;;;4987445;28;20215;-59
2022/01/19 03:25:12;;;;;;;24.53;11.90;;;0.40;99.90;;;;;;4986917;28;20604;-59
2022/01/19 03:27:45;;;;;;;22.30;11.37;;;0.40;99.90;;;;;;4986485;28;20285;-58
2022/01/19 03:30:14;;;;;;;22.33;12.13;;;0.40;99.90;;;;;;4981514;28;20284;-58
2022/01/19 03:32:44;;;;;;;20.27;11.27;;;0.40;99.90;;;;;;4985633;28;21134;-59
2022/01/19 03:35:13;;;;;;;19.30;11.87;;;0.30;1.00;;;;;;4987050;28;20233;-59
2022/01/19 03:37:43;;;;;;;23.47;12.23;;;0.40;1.00;;;;;;4986389;28;20198;-59
2022/01/19 03:40:11;;;;;;;21.90;11.57;;;0.40;1.00;;;;;;4986794;28;20252;-59
2022/01/19 03:42:38;;;;;;;24.40;12.23;;;0.40;1.00;;;;;;4987179;28;20205;-59
2022/01/19 03:45:10;;;;;;;25.80;12.10;;;0.40;1.00;;;;;;4969889;28;20213;-59
2022/01/19 03:48:05;;;;;;;21.80;13.00;;;0.40;1.00;;;;;;4988539;28;20715;-59
2022/01/19 03:50:36;;;;;;;23.57;12.00;;;0.50;1.00;;;;;;4972106;28;20194;-59
2022/01/19 03:53:06;;;;;;;19.60;12.67;;;0.50;1.00;;;;;;4970425;28;20225;-59
2022/01/19 03:55:35;;;;;;;23.23;13.57;;;0.50;1.00;;;;;;4986454;28;20193;-59
2022/01/19 03:58:04;;;;;;;22.10;13.07;;;0.50;1.00;;;;;;4986895;28;20201;-59
2022/01/19 04:00:35;;;;;;;26.17;13.70;;;0.50;1.00;;;;;;4984711;28;20200;-59
2022/01/19 04:03:05;;;;;;;26.03;13.87;;;0.50;1.00;;;;;;4988306;28;20241;-59
2022/01/19 04:05:42;;;;;;;25.57;13.37;;;0.40;99.90;;;;;;4987862;28;20228;-59
2022/01/19 04:08:12;;;;;;;22.70;13.57;;;0.30;99.90;;;;;;4987106;28;20194;-59
2022/01/19 04:10:40;;;;;;;23.53;12.80;;;0.30;99.90;;;;;;4987477;28;20189;-59
2022/01/19 04:13:11;;;;;;;24.23;13.20;;;0.30;1.00;;;;;;4984700;28;20285;-59
2022/01/19 04:15:40;;;;;;;18.57;12.47;;;0.30;1.00;;;;;;4987769;28;20733;-59
2022/01/19 04:18:07;;;;;;;23.87;12.70;;;0.20;1.00;;;;;;4988608;28;20194;-59
2022/01/19 04:20:41;;;;;;;23.93;12.83;;;0.20;1.00;;;;;;4985933;28;20320;-59
2022/01/19 04:23:08;;;;;;;17.27;11.53;;;0.10;99.90;;;;;;4984657;28;20646;-59
2022/01/19 04:25:35;;;;;;;21.23;11.93;;;0.10;1.00;;;;;;4971424;28;20221;-59
2022/01/19 04:28:07;;;;;;;20.13;11.90;;;0.10;1.00;;;;;;4983959;28;20194;-59
2022/01/19 04:30:38;;;;;;;23.83;11.77;;;0.10;57.20;;;;;;4986813;28;20204;-59
2022/01/19 04:33:10;;;;;;;22.40;12.33;;;0.10;1.00;;;;;;4980215;28;20197;-59
2022/01/19 04:35:45;;;;;;;20.90;12.60;;;0.00;99.90;;;;;;4987328;28;20205;-59
2022/01/19 05:01:37;;;;;;;21.83;12.97;;;0.20;1.00;;;;;;4967215;28;20197;-59
2022/01/19 05:03:59;;;;;;;20.47;13.03;;;0.30;99.90;;;;;;4985014;28;20217;-59
2022/01/19 05:06:46;;;;;;;20.33;14.07;;;0.30;99.90;;;;;;4985849;28;20288;-58
2022/01/19 05:14:34;;;;;;;22.27;15.93;;;0.60;99.90;;;;;;4990035;28;20236;-59
2022/01/19 05:17:01;;;;;;;22.77;16.60;;;0.50;1.00;;;;;;5000575;28;20615;-59
2022/01/19 05:19:29;;;;;;;25.57;18.90;;;0.60;1.00;;;;;;4985828;28;20229;-60
2022/01/19 05:21:56;;;;;;;25.43;18.50;;;0.60;1.00;;;;;;4981085;28;20205;-60
2022/01/19 05:24:46;;;;;;;28.00;17.47;;;0.70;1.00;;;;;;4983564;28;20249;-59
2022/01/19 05:27:23;;;;;;;24.13;16.83;;;0.70;1.00;;;;;;4984577;28;20296;-59
2022/01/19 05:29:50;;;;;;;26.40;18.87;;;0.80;1.00;;;;;;4964586;28;20721;-59
2022/01/19 05:32:17;;;;;;;26.93;16.90;;;0.80;1.00;;;;;;4996324;28;20293;-59
2022/01/19 05:34:44;;;;;;;24.53;16.73;;;0.80;99.90;;;;;;5003536;28;20205;-59
2022/01/19 05:37:36;;;;;;;24.87;18.20;;;0.90;99.90;;;;;;4975413;28;20288;-58
2022/01/19 05:40:17;;;;;;;25.87;19.07;;;0.90;99.90;;;;;;4983498;28;20559;-59
2022/01/19 05:42:51;;;;;;;31.93;20.57;;;1.00;99.90;;;;;;4983072;28;21150;-59
2022/01/19 05:45:19;;;;;;;35.07;23.27;;;1.10;99.90;;;;;;4985482;28;20272;-59
2022/01/19 05:47:47;;;;;;;30.67;22.77;;;1.20;26.30;;;;;;4989015;28;20242;-60
2022/01/19 05:50:16;;;;;;;34.53;23.03;;;1.30;1.00;;;;;;4988691;28;20198;-59
2022/01/19 05:52:52;;;;;;;50.60;35.90;;;1.30;1.00;;;;;;4989532;28;20264;-59
2022/01/19 05:55:19;;;;;;;33.27;22.90;;;1.40;1.00;;;;;;4987361;28;20259;-58
2022/01/19 05:57:46;;;;;;;33.80;22.77;;;1.50;1.00;;;;;;4987585;28;20205;-59
2022/01/19 06:00:16;;;;;;;31.73;23.87;;;1.50;1.00;;;;;;4987329;28;20249;-58
2022/01/19 06:02:49;;;;;;;31.30;21.87;;;1.60;99.90;;;;;;4990589;28;20189;-58
2022/01/19 06:05:24;;;;;;;28.67;21.10;;;1.70;99.90;;;;;;4966708;28;20224;-59
2022/01/19 06:08:29;;;;;;;26.57;19.90;;;1.80;99.90;;;;;;4990860;28;20208;-58
2022/01/19 06:11:00;;;;;;;52.43;36.93;;;1.90;1.00;;;;;;5005998;28;20205;-60
2022/01/19 06:13:27;;;;;;;34.77;24.83;;;2.00;1.00;;;;;;4981829;28;20208;-60
2022/01/19 06:15:56;;;;;;;42.90;28.63;;;2.00;1.00;;;;;;5002450;28;20200;-59
2022/01/19 06:18:31;;;;;;;153.23;78.67;;;2.10;1.00;;;;;;4994842;28;20205;-60
2022/01/19 06:21:02;;;;;;;117.63;57.60;;;2.10;99.90;;;;;;4992526;28;20223;-59
2022/01/19 06:23:36;;;;;;;41.30;30.67;;;2.10;26.40;;;;;;4985837;28;20801;-60
2022/01/19 06:26:06;;;;;;;32.17;23.50;;;2.10;1.00;;;;;;4976498;28;20212;-60
2022/01/19 06:28:37;;;;;;;24.60;19.53;;;2.10;1.00;;;;;;4990144;28;20197;-60
2022/01/19 06:31:07;;;;;;;24.77;19.40;;;2.20;1.00;;;;;;5007105;28;20200;-59
2022/01/19 06:33:37;;;;;;;55.20;49.20;;;2.30;1.00;;;;;;4991211;28;20201;-59
2022/01/19 06:36:06;;;;;;;29.47;24.37;;;2.30;1.00;;;;;;4993774;28;20213;-59
2022/01/19 06:38:46;;;;;;;24.07;17.57;;;2.40;1.00;;;;;;4991191;28;20224;-58
2022/01/19 06:41:36;;;;;;;22.30;15.93;;;2.40;1.00;;;;;;5007014;28;20221;-59
2022/01/19 06:44:03;;;;;;;16.37;14.23;;;2.60;1.00;;;;;;4982892;28;20218;-59
2022/01/19 06:46:31;;;;;;;19.50;15.93;;;2.70;1.00;;;;;;4972983;28;20192;-59
2022/01/19 06:48:58;;;;;;;13.67;12.00;;;2.70;1.00;;;;;;4991933;28;20248;-59
2022/01/19 06:51:26;;;;;;;15.47;12.30;;;2.80;1.00;;;;;;4994410;28;20584;-59
2022/01/19 06:53:58;;;;;;;12.80;11.27;;;2.80;1.00;;;;;;4980760;28;20602;-58
2022/01/19 06:56:28;;;;;;;15.13;11.90;;;2.90;99.90;;;;;;4986133;28;20612;-59
2022/01/19 06:59:15;;;;;;;11.73;10.53;;;3.00;99.90;;;;;;4985062;28;21949;-59
2022/01/19 07:02:00;;;;;;;12.03;10.73;;;3.00;99.90;;;;;;4983184;28;20256;-59
2022/01/19 07:04:49;;;;;;;10.47;9.40;;;3.00;99.90;;;;;;4986907;28;20231;-59
2022/01/19 07:07:54;;;;;;;11.20;10.10;;;3.10;99.90;;;;;;5001824;28;20295;-59
2022/01/19 07:10:22;;;;;;;10.60;9.47;;;3.10;99.90;;;;;;4988083;28;20192;-59
2022/01/19 07:12:49;;;;;;;9.80;8.80;;;3.10;99.90;;;;;;4987037;28;20202;-59
2022/01/19 07:15:17;;;;;;;11.57;9.17;;;3.20;99.90;;;;;;4987050;28;20300;-59
2022/01/19 07:17:43;;;;;;;10.53;9.43;;;3.20;99.90;;;;;;4987614;28;20754;-59
2022/01/19 07:20:13;;;;;;;10.57;9.47;;;3.20;99.90;;;;;;4975280;28;20291;-59
2022/01/19 07:22:43;;;;;;;12.37;10.53;;;3.30;49.80;;;;;;4974543;28;20201;-59
2022/01/19 07:25:10;;;;;;;13.67;10.13;;;3.30;1.00;;;;;;4987199;28;20213;-59
2022/01/19 07:27:37;;;;;;;10.57;9.57;;;3.40;1.00;;;;;;4984449;28;20286;-59
2022/01/19 07:30:05;;;;;;;15.40;11.53;;;3.40;1.00;;;;;;4984601;28;20204;-58
2022/01/19 07:32:34;;;;;;;15.77;14.00;;;3.40;10.40;;;;;;4993000;28;20204;-59
2022/01/19 07:35:05;;;;;;;19.00;12.33;;;3.30;1.00;;;;;;4991946;28;20505;-59
2022/01/19 07:37:32;;;;;;;15.63;13.77;;;3.40;7.80;;;;;;4988727;28;20579;-60
2022/01/19 07:40:02;;;;;;;13.97;12.57;;;3.50;1.00;;;;;;4985326;28;20683;-59
2022/01/19 07:42:30;;;;;;;13.77;12.37;;;3.50;1.00;;;;;;4987513;28;20211;-59
2022/01/19 07:45:06;;;;;;;14.20;12.80;;;3.50;1.00;;;;;;4986486;28;20323;-60
2022/01/19 07:47:46;;;;;;;19.17;14.27;;;3.50;1.00;;;;;;4992773;28;20197;-59
2022/01/19 07:50:32;;;;;;;14.43;12.70;;;3.50;1.00;;;;;;4988303;28;20192;-59
2022/01/19 07:53:21;;;;;;;13.77;12.43;;;3.60;1.00;;;;;;4993719;28;20882;-58
2022/01/19 07:55:57;;;;;;;12.73;11.47;;;3.60;1.00;;;;;;4990628;28;20200;-59
2022/01/19 07:58:53;;;;;;;11.57;10.40;;;3.70;1.00;;;;;;4904141;28;20209;-58
2022/01/19 08:01:31;;;;;;;14.23;12.60;;;3.80;99.90;;;;;;4987881;28;20231;-59
2022/01/19 08:04:01;;;;;;;10.67;9.67;;;3.80;99.90;;;;;;5004315;28;20299;-59
2022/01/19 08:06:31;;;;;;;11.90;10.70;;;3.80;99.90;;;;;;5003492;28;20291;-59
2022/01/19 08:08:59;;;;;;;11.33;10.23;;;3.90;99.90;;;;;;4971514;28;20209;-59
2022/01/19 08:11:26;;;;;;;11.53;9.33;;;3.90;99.90;;;;;;4987373;28;20201;-59
2022/01/19 08:14:21;;;;;;;10.03;8.70;;;3.90;99.90;;;;;;4983421;28;20260;-59
2022/01/19 08:16:48;;;;;;;9.57;8.70;;;4.00;99.90;;;;;;4986960;28;20201;-59
2022/01/19 08:19:18;;;;;;;14.87;9.40;;;4.00;99.90;;;;;;4985964;28;20213;-58
2022/01/19 08:21:45;;;;;;;9.53;8.63;;;3.90;99.90;;;;;;4986374;28;20680;-59
2022/01/19 08:24:19;;;;;;;9.63;8.67;;;4.00;99.90;;;;;;4983648;28;20229;-59
2022/01/19 08:26:49;;;;;;;8.30;7.50;;;4.00;99.90;;;;;;4985723;28;20197;-59
2022/01/19 08:29:21;;;;;;;8.97;7.40;;;4.10;99.90;;;;;;4972678;28;20692;-59
2022/01/19 08:31:53;;;;;;;8.50;7.60;;;4.10;99.90;;;;;;4971276;28;20204;-58
2022/01/19 08:34:39;;;;;;;8.30;7.40;;;4.00;99.90;;;;;;4984263;28;20196;-60
2022/01/19 08:37:15;;;;;;;8.10;7.10;;;4.10;99.90;;;;;;4986306;28;20212;-59
2022/01/19 08:39:54;;;;;;;11.30;6.90;;;4.10;99.90;;;;;;4981613;28;20225;-59
2022/01/19 08:42:21;;;;;;;7.30;6.60;;;4.20;99.90;;;;;;4983406;28;20260;-59
2022/01/19 08:44:53;;;;;;;9.37;7.57;;;4.20;99.90;;;;;;4986683;28;20316;-59
2022/01/19 08:47:24;;;;;;;8.83;7.10;;;4.20;99.90;;;;;;4982028;28;20535;-59
2022/01/19 08:50:13;;;;;;;7.30;6.60;;;4.30;99.90;;;;;;4988388;28;20541;-59
2022/01/19 08:52:49;;;;;;;8.03;7.23;;;4.30;92.20;;;;;;4984505;28;20560;-58
2022/01/19 08:55:26;;;;;;;7.87;7.07;;;4.30;73.10;;;;;;4965433;28;20202;-59
2022/01/19 08:57:56;;;;;;;8.03;7.23;;;4.30;99.90;;;;;;4986435;28;20201;-59
2022/01/19 09:00:23;;;;;;;7.10;6.40;;;4.40;99.90;;;;;;4982968;28;20206;-58
2022/01/19 09:02:52;;;;;;;7.03;6.33;;;4.40;91.30;;;;;;4979683;28;20635;-59
2022/01/19 09:05:19;;;;;;;9.03;6.93;;;4.40;72.30;;;;;;4968624;28;20228;-59
2022/01/19 09:07:46;;;;;;;7.20;6.50;;;4.40;99.90;;;;;;4988239;28;20291;-59
2022/01/19 09:10:14;;;;;;;8.53;6.80;;;4.40;97.20;;;;;;4985574;28;20245;-59
2022/01/19 09:12:42;;;;;;;9.67;7.10;;;4.30;94.20;;;;;;4991075;28;20559;-58
2022/01/19 09:15:10;;;;;;;7.57;6.73;;;4.40;99.90;;;;;;5001730;28;20240;-58
2022/01/19 09:17:39;;;;;;;8.13;7.33;;;4.40;4.60;;;;;;4959375;28;20792;-58
2022/01/19 09:20:08;;;;;;;8.27;7.13;;;4.50;1.00;;;;;;5007245;28;20197;-59
2022/01/19 09:22:35;;;;;;;9.50;7.40;;;4.50;1.00;;;;;;4985475;28;20256;-58
2022/01/19 09:25:05;;;;;;;8.90;7.80;;;4.50;1.00;;;;;;4985930;28;20233;-58
2022/01/19 09:27:32;;;;;;;9.47;8.00;;;4.60;1.00;;;;;;4971728;28;21237;-58
2022/01/19 09:30:00;;;;;;;10.40;8.27;;;4.50;1.00;;;;;;4991155;28;20719;-57
2022/01/19 09:32:28;;;;;;;11.33;10.13;;;4.50;1.00;;;;;;5009042;28;20602;-58
2022/01/19 09:34:58;;;;;;;8.80;7.90;;;4.50;1.00;;;;;;4991706;28;20312;-58
2022/01/19 09:37:25;;;;;;;8.30;6.93;;;4.60;1.00;;;;;;4993073;28;20201;-58
2022/01/19 09:40:10;;;;;;;9.47;7.93;;;4.60;1.00;;;;;;4995226;28;20681;-58
2022/01/19 09:42:37;;;;;;;9.07;8.17;;;4.70;1.00;;;;;;4994996;28;20258;-57
2022/01/19 09:45:05;;;;;;;7.97;7.17;;;4.70;1.00;;;;;;4993954;28;20217;-58
2022/01/19 09:47:32;;;;;;;8.33;7.53;;;4.70;1.00;;;;;;4995007;28;20636;-58
2022/01/19 09:49:59;;;;;;;11.33;9.10;;;4.70;1.00;;;;;;4989002;28;20271;-59
2022/01/19 09:52:26;;;;;;;9.23;8.20;;;4.70;1.00;;;;;;5010065;28;20193;-58
2022/01/19 09:54:55;;;;;;;9.10;8.20;;;4.70;1.00;;;;;;4993491;28;20747;-58
2022/01/19 09:57:22;;;;;;;9.43;8.53;;;4.70;1.00;;;;;;4992328;28;20263;-58
2022/01/19 09:59:49;;;;;;;9.70;8.60;;;4.70;1.00;;;;;;5010849;28;20201;-58
2022/01/19 10:02:17;;;;;;;11.10;9.83;;;4.70;1.00;;;;;;4993107;28;20215;-58
2022/01/19 10:04:47;;;;;;;12.20;9.70;;;4.70;1.00;;;;;;4993337;28;20232;-58
2022/01/19 10:07:24;;;;;;;13.30;11.13;;;4.70;1.00;;;;;;5012474;28;20231;-59
2022/01/19 10:09:54;;;;;;;10.70;9.60;;;4.70;1.00;;;;;;5007669;28;20239;-58
2022/01/19 10:18:33;;;;;;;12.97;11.47;;;4.80;1.00;;;;;;5009699;28;20702;-58
2022/01/19 10:21:06;;;;;;;12.53;11.23;;;4.70;1.00;;;;;;4992152;28;20703;-58
2022/01/19 10:23:38;;;;;;;11.17;10.07;;;4.70;1.00;;;;;;5009729;28;20321;-59
2022/01/19 10:26:09;;;;;;;12.50;10.53;;;4.70;1.00;;;;;;4992883;28;20217;-59
2022/01/19 10:28:58;;;;;;;12.67;11.47;;;4.70;1.00;;;;;;4972989;28;20263;-59
2022/01/19 10:31:26;;;;;;;12.00;10.70;;;4.70;1.00;;;;;;4993294;28;20209;-59
2022/01/19 10:34:19;;;;;;;13.70;11.87;;;4.70;1.00;;;;;;4992757;28;20221;-59
2022/01/19 10:36:47;;;;;;;18.97;13.43;;;4.70;1.00;;;;;;4994145;28;20248;-59
2022/01/19 10:39:16;;;;;;;19.43;14.97;;;4.70;1.00;;;;;;4990930;28;21029;-59
2022/01/19 10:41:57;;;;;;;17.73;13.67;;;4.70;1.00;;;;;;4984416;28;20205;-59
2022/01/19 10:44:52;;;;;;;20.83;15.40;;;4.70;1.00;;;;;;4982564;28;20201;-58
2022/01/19 10:47:43;;;;;;;21.47;16.33;;;4.70;1.00;;;;;;4980875;28;20209;-58
2022/01/19 10:50:15;;;;;;;20.53;17.03;;;4.70;1.00;;;;;;4993690;28;20211;-57
2022/01/19 10:52:44;;;;;;;25.63;15.93;;;4.70;1.00;;;;;;4992949;28;20292;-59
2022/01/19 10:55:19;;;;;;;26.87;18.67;;;4.60;1.00;;;;;;4991089;28;20684;-58
2022/01/19 10:57:47;;;;;;;19.13;15.00;;;4.60;1.00;;;;;;5008020;28;20252;-58
2022/01/19 11:00:36;;;;;;;20.57;16.80;;;4.60;1.00;;;;;;4991906;28;20209;-58
2022/01/19 11:03:19;;;;;;;25.70;17.97;;;4.50;1.00;;;;;;4976802;28;20318;-58
2022/01/19 11:05:47;;;;;;;27.90;17.40;;;4.60;1.00;;;;;;5008924;28;20212;-57
2022/01/19 11:08:17;;;;;;;23.50;16.00;;;4.60;1.00;;;;;;5004893;28;20193;-58
2022/01/19 11:10:48;;;;;;;16.60;13.53;;;4.60;1.00;;;;;;4985132;28;20568;-58
2022/01/19 11:13:25;;;;;;;23.00;15.47;;;4.60;1.00;;;;;;4990786;28;20690;-58
2022/01/19 11:15:53;;;;;;;25.70;17.90;;;4.70;1.00;;;;;;4993658;28;20251;-58
2022/01/19 11:18:22;;;;;;;31.13;18.77;;;4.70;1.00;;;;;;4992257;28;20280;-58
2022/01/19 11:20:52;;;;;;;35.67;21.97;;;4.70;1.00;;;;;;4974879;28;20208;-59
2022/01/19 11:23:33;;;;;;;27.30;18.60;;;4.70;1.00;;;;;;5004633;28;20197;-59
2022/01/19 11:26:04;;;;;;;28.50;19.67;;;4.90;1.00;;;;;;4992917;28;20290;-59
2022/01/19 11:28:39;;;;;;;44.03;24.33;;;4.90;1.00;;;;;;4990244;28;20193;-59
2022/01/19 11:31:10;;;;;;;34.60;20.80;;;4.90;1.00;;;;;;4984210;28;20196;-59
2022/01/19 11:33:51;;;;;;;33.90;21.23;;;5.00;1.00;;;;;;4975624;28;20227;-58
2022/01/19 11:36:34;;;;;;;25.30;17.73;;;5.00;1.00;;;;;;4990388;28;20208;-58
2022/01/19 11:39:12;;;;;;;21.47;14.83;;;4.90;1.00;;;;;;5006427;28;20197;-58
2022/01/19 11:41:44;;;;;;;26.73;17.60;;;4.90;1.00;;;;;;4989795;28;20205;-59
2022/01/19 11:44:18;;;;;;;19.17;14.40;;;4.90;1.00;;;;;;4992844;28;20217;-59
2022/01/19 11:46:53;;;;;;;23.07;17.50;;;4.90;1.00;;;;;;5008705;28;20247;-59
2022/01/19 11:49:58;;;;;;;20.30;16.43;;;4.90;1.00;;;;;;4993538;28;20538;-59
2022/01/19 11:52:53;;;;;;;21.97;14.50;;;4.80;1.00;;;;;;4994002;28;20212;-58
2022/01/19 11:55:25;;;;;;;22.30;15.97;;;4.90;1.00;;;;;;4985315;28;20213;-59
2022/01/19 11:58:20;;;;;;;18.03;15.60;;;4.80;1.00;;;;;;5001047;28;20198;-59
2022/01/19 12:00:52;;;;;;;19.93;15.40;;;4.80;1.00;;;;;;4988378;28;20197;-59
2022/01/19 12:03:32;;;;;;;18.63;15.23;;;4.90;1.00;;;;;;5001710;28;20224;-60
2022/01/19 12:06:30;;;;;;;18.83;15.37;;;4.90;1.00;;;;;;4987400;28;20209;-59
2022/01/19 12:08:58;;;;;;;20.07;15.03;;;5.00;1.00;;;;;;4971070;28;20220;-59
2022/01/19 12:11:26;;;;;;;21.50;14.97;;;4.90;1.00;;;;;;4987072;28;20180;-59
2022/01/19 12:16:56;;;;;;;19.83;15.67;;;5.00;1.00;;;;;;4993049;28;20229;-60
2022/01/19 12:19:28;;;;;;;22.53;15.70;;;5.10;1.00;;;;;;4983112;28;20206;-59
2022/01/19 12:22:05;;;;;;;20.07;15.80;;;5.00;1.00;;;;;;4995221;28;21162;-58
2022/01/19 12:24:37;;;;;;;20.40;16.00;;;5.10;1.00;;;;;;4980021;28;20800;-59
2022/01/19 12:27:24;;;;;;;18.73;14.40;;;5.10;1.00;;;;;;4996849;28;20213;-59
2022/01/19 12:29:58;;;;;;;18.83;14.23;;;5.10;1.00;;;;;;4997023;28;20213;-58
2022/01/19 12:32:25;;;;;;;18.83;14.67;;;5.00;1.00;;;;;;4983230;28;20277;-58
2022/01/19 12:35:07;;;;;;;20.07;15.43;;;5.00;1.00;;;;;;4979485;28;20274;-58
2022/01/19 12:37:36;;;;;;;19.80;14.63;;;5.00;1.00;;;;;;4993948;28;20190;-59
2022/01/19 12:40:29;;;;;;;19.67;15.37;;;5.00;1.00;;;;;;4984871;28;20256;-58
2022/01/19 12:43:09;;;;;;;16.60;13.60;;;5.00;1.00;;;;;;4982429;28;20202;-58
2022/01/19 12:45:55;;;;;;;17.47;14.37;;;5.10;1.00;;;;;;4981412;28;20295;-59
2022/01/19 12:48:47;;;;;;;21.83;15.30;;;5.00;1.00;;;;;;4980339;28;20205;-57
2022/01/19 12:51:34;;;;;;;21.57;14.97;;;5.10;1.00;;;;;;4978481;28;20186;-59
2022/01/19 12:54:02;;;;;;;19.20;14.73;;;5.10;1.00;;;;;;4979853;28;20194;-59
2022/01/19 12:56:57;;;;;;;21.00;14.33;;;5.00;1.00;;;;;;4984990;28;20218;-59
2022/01/19 12:59:24;;;;;;;22.20;15.83;;;5.10;1.00;;;;;;4983625;28;20248;-58
2022/01/19 13:01:54;;;;;;;21.63;15.67;;;5.10;1.00;;;;;;4983522;28;20733;-58
2022/01/19 13:04:30;;;;;;;26.47;17.17;;;5.00;1.00;;;;;;4980299;28;20624;-58
2022/01/19 13:07:26;;;;;;;19.73;14.93;;;5.00;1.00;;;;;;4995416;28;20225;-58
2022/01/19 13:15:44;;;;;;;21.63;14.83;;;5.10;1.00;;;;;;4993421;28;20729;-59
2022/01/19 13:18:28;;;;;;;18.77;14.07;;;5.10;1.00;;;;;;4999589;28;20719;-57
2022/01/19 13:20:57;;;;;;;20.93;14.83;;;5.10;1.00;;;;;;4983296;28;20291;-57
2022/01/19 13:23:27;;;;;;;19.07;14.77;;;5.10;1.00;;;;;;4977697;28;20197;-58
2022/01/19 13:26:06;;;;;;;20.53;15.37;;;5.10;1.00;;;;;;4999431;28;20238;-58
2022/01/19 13:28:36;;;;;;;20.97;16.30;;;5.00;1.00;;;;;;4986647;28;20293;-58
2022/01/19 13:31:09;;;;;;;18.27;15.50;;;5.00;1.00;;;;;;4982675;28;20199;-58
2022/01/19 13:33:37;;;;;;;19.80;15.40;;;5.00;1.00;;;;;;4984457;28;20271;-58
2022/01/19 13:36:07;;;;;;;18.60;15.37;;;4.90;1.00;;;;;;4996207;28;20290;-59
2022/01/19 13:38:34;;;;;;;23.13;16.77;;;5.00;1.00;;;;;;4997905;28;20590;-58
2022/01/19 13:41:03;;;;;;;18.50;14.43;;;5.00;1.00;;;;;;4986134;28;20208;-58
2022/01/19 13:43:33;;;;;;;20.20;15.33;;;5.00;1.00;;;;;;4996548;28;20255;-59
2022/01/19 13:46:19;;;;;;;19.73;15.10;;;4.90;1.00;;;;;;4985119;28;20217;-58
2022/01/19 13:49:00;;;;;;;19.43;16.37;;;5.00;1.00;;;;;;4981539;28;20296;-58
2022/01/19 13:51:29;;;;;;;23.73;14.93;;;5.00;1.00;;;;;;4984435;28;20288;-58
2022/01/19 13:54:01;;;;;;;21.30;15.07;;;5.00;1.00;;;;;;4981529;28;20232;-57
2022/01/19 13:56:37;;;;;;;24.23;16.23;;;4.90;1.00;;;;;;4998316;28;20263;-59
2022/01/19 13:59:08;;;;;;;29.03;18.20;;;5.00;1.00;;;;;;5004113;28;20206;-56
2022/01/19 14:01:51;;;;;;;20.37;15.53;;;5.00;1.00;;;;;;4981747;28;20775;-58
2022/01/19 14:04:18;;;;;;;21.50;16.20;;;5.00;1.00;;;;;;4984645;28;20205;-58
2022/01/19 14:06:50;;;;;;;26.47;17.17;;;5.00;1.00;;;;;;4994903;28;20201;-59
2022/01/19 14:09:20;;;;;;;20.50;16.57;;;5.00;1.00;;;;;;4982165;28;20194;-59
2022/01/19 14:12:02;;;;;;;20.33;15.73;;;5.00;1.00;;;;;;4996567;28;20688;-60
2022/01/19 14:14:41;;;;;;;25.77;17.40;;;5.00;1.00;;;;;;4970629;28;20295;-59
2022/01/19 14:17:28;;;;;;;20.10;15.60;;;5.00;1.00;;;;;;4989731;28;20856;-59
2022/01/19 14:19:56;;;;;;;21.13;15.33;;;5.00;1.00;;;;;;4970758;28;20315;-59
2022/01/19 14:22:32;;;;;;;19.67;14.83;;;4.90;1.00;;;;;;4970667;28;20288;-59
2022/01/19 14:25:08;;;;;;;23.50;16.77;;;5.00;1.00;;;;;;4994264;28;20217;-60
2022/01/19 14:27:56;;;;;;;22.90;17.20;;;5.00;1.00;;;;;;4991196;28;20200;-60
2022/01/19 14:30:29;;;;;;;24.50;16.00;;;5.00;1.00;;;;;;4987171;28;21048;-58
2022/01/19 14:33:05;;;;;;;21.20;14.53;;;4.90;1.00;;;;;;4997239;28;20631;-59
2022/01/19 14:35:32;;;;;;;23.23;17.17;;;4.90;1.00;;;;;;4982397;28;20188;-59
2022/01/19 14:38:31;;;;;;;27.33;19.03;;;4.90;1.00;;;;;;4982061;28;20227;-59
2022/01/19 14:41:10;;;;;;;21.70;16.90;;;4.80;1.00;;;;;;4987721;28;20220;-59